sensor_id;sensor_type;location;lat;lon;timestamp;P1;durP1;ratioP1;P2;durP2;ratioP2
25615;SDS011;13482;48.234;13.006;2022-11-14T00:01:11;4.30;;;3.50;;
25615;SDS011;13482;48.234;13.006;2022-11-14T00:03:39;4.72;;;3.63;;
25615;SDS011;13482;48.234;13.006;2022-11-14T00:06:06;4.10;;;3.15;;
25615;SDS011;13482;48.234;13.006;2022-11-14T00:08:34;4.72;;;3.65;;
25615;SDS011;13482;48.234;13.006;2022-11-14T00:11:01;5.40;;;4.07;;
25615;SDS011;13482;48.234;13.006;2022-11-14T00:13:29;5.32;;;3.95;;
25615;SDS011;13482;48.234;13.006;2022-11-14T00:15:56;5.13;;;4.00;;
25615;SDS011;13482;48.234;13.006;2022-11-14T00:18:24;6.07;;;4.28;;
25615;SDS011;13482;48.234;13.006;2022-11-14T00:20:51;5.90;;;4.35;;
25615;SDS011;13482;48.234;13.006;2022-11-14T00:23:19;5.85;;;4.28;;
25615;SDS011;13482;48.234;13.006;2022-11-14T00:25:47;5.43;;;4.18;;
25615;SDS011;13482;48.234;13.006;2022-11-14T00:28:14;6.60;;;4.10;;
25615;SDS011;13482;48.234;13.006;2022-11-14T00:30:45;6.82;;;5.20;;
25615;SDS011;13482;48.234;13.006;2022-11-14T00:35:49;5.18;;;3.88;;
25615;SDS011;13482;48.234;13.006;2022-11-14T00:38:21;5.30;;;4.00;;
25615;SDS011;13482;48.234;13.006;2022-11-14T00:40:49;6.40;;;4.43;;
25615;SDS011;13482;48.234;13.006;2022-11-14T00:43:16;6.05;;;4.45;;
25615;SDS011;13482;48.234;13.006;2022-11-14T00:45:44;7.22;;;4.45;;
25615;SDS011;13482;48.234;13.006;2022-11-14T00:48:13;5.68;;;4.25;;
25615;SDS011;13482;48.234;13.006;2022-11-14T00:50:41;6.70;;;4.40;;
25615;SDS011;13482;48.234;13.006;2022-11-14T00:53:08;5.85;;;4.15;;
25615;SDS011;13482;48.234;13.006;2022-11-14T00:55:36;5.63;;;4.22;;
25615;SDS011;13482;48.234;13.006;2022-11-14T00:58:03;6.00;;;4.22;;
25615;SDS011;13482;48.234;13.006;2022-11-14T01:00:30;5.38;;;3.90;;
25615;SDS011;13482;48.234;13.006;2022-11-14T01:02:58;5.38;;;4.15;;
25615;SDS011;13482;48.234;13.006;2022-11-14T01:05:25;5.68;;;4.45;;
25615;SDS011;13482;48.234;13.006;2022-11-14T01:07:53;6.25;;;4.50;;
25615;SDS011;13482;48.234;13.006;2022-11-14T01:10:20;5.78;;;4.57;;
25615;SDS011;13482;48.234;13.006;2022-11-14T01:12:48;5.93;;;4.30;;
25615;SDS011;13482;48.234;13.006;2022-11-14T01:15:15;6.50;;;4.75;;
25615;SDS011;13482;48.234;13.006;2022-11-14T01:17:42;6.05;;;4.50;;
25615;SDS011;13482;48.234;13.006;2022-11-14T01:20:09;7.00;;;4.70;;
25615;SDS011;13482;48.234;13.006;2022-11-14T01:22:37;5.68;;;4.28;;
25615;SDS011;13482;48.234;13.006;2022-11-14T01:25:04;6.75;;;4.82;;
25615;SDS011;13482;48.234;13.006;2022-11-14T01:27:31;7.40;;;4.85;;
25615;SDS011;13482;48.234;13.006;2022-11-14T01:29:59;5.60;;;4.47;;
25615;SDS011;13482;48.234;13.006;2022-11-14T01:32:26;6.30;;;4.80;;
25615;SDS011;13482;48.234;13.006;2022-11-14T01:34:53;6.45;;;4.53;;
25615;SDS011;13482;48.234;13.006;2022-11-14T01:37:21;6.40;;;4.68;;
25615;SDS011;13482;48.234;13.006;2022-11-14T01:39:48;6.63;;;5.07;;
25615;SDS011;13482;48.234;13.006;2022-11-14T01:42:15;6.72;;;5.20;;
25615;SDS011;13482;48.234;13.006;2022-11-14T01:44:47;6.93;;;5.03;;
25615;SDS011;13482;48.234;13.006;2022-11-14T01:47:22;5.93;;;4.68;;
25615;SDS011;13482;48.234;13.006;2022-11-14T01:49:54;5.53;;;4.30;;
25615;SDS011;13482;48.234;13.006;2022-11-14T01:52:26;5.30;;;4.00;;
25615;SDS011;13482;48.234;13.006;2022-11-14T01:54:59;5.90;;;4.38;;
25615;SDS011;13482;48.234;13.006;2022-11-14T02:00:11;5.18;;;3.55;;
25615;SDS011;13482;48.234;13.006;2022-11-14T02:02:39;4.65;;;3.72;;
25615;SDS011;13482;48.234;13.006;2022-11-14T02:05:09;5.03;;;3.85;;
25615;SDS011;13482;48.234;13.006;2022-11-14T02:07:41;6.55;;;4.18;;
25615;SDS011;13482;48.234;13.006;2022-11-14T02:10:09;5.75;;;4.60;;
25615;SDS011;13482;48.234;13.006;2022-11-14T02:12:45;5.95;;;4.43;;
25615;SDS011;13482;48.234;13.006;2022-11-14T02:15:12;5.88;;;4.25;;
25615;SDS011;13482;48.234;13.006;2022-11-14T02:17:40;5.65;;;4.28;;
25615;SDS011;13482;48.234;13.006;2022-11-14T02:22:37;5.53;;;3.92;;
25615;SDS011;13482;48.234;13.006;2022-11-14T02:25:07;5.78;;;4.15;;
25615;SDS011;13482;48.234;13.006;2022-11-14T02:27:38;5.60;;;4.30;;
25615;SDS011;13482;48.234;13.006;2022-11-14T02:30:10;5.30;;;3.83;;
25615;SDS011;13482;48.234;13.006;2022-11-14T02:32:41;6.13;;;4.25;;
25615;SDS011;13482;48.234;13.006;2022-11-14T02:35:28;5.15;;;3.80;;
25615;SDS011;13482;48.234;13.006;2022-11-14T02:37:55;5.40;;;3.90;;
25615;SDS011;13482;48.234;13.006;2022-11-14T02:40:22;4.95;;;3.75;;
25615;SDS011;13482;48.234;13.006;2022-11-14T02:42:50;5.32;;;3.80;;
25615;SDS011;13482;48.234;13.006;2022-11-14T02:45:17;5.57;;;4.00;;
25615;SDS011;13482;48.234;13.006;2022-11-14T02:47:46;6.00;;;3.90;;
25615;SDS011;13482;48.234;13.006;2022-11-14T02:50:13;4.75;;;3.63;;
25615;SDS011;13482;48.234;13.006;2022-11-14T02:52:40;5.07;;;3.80;;
25615;SDS011;13482;48.234;13.006;2022-11-14T02:55:07;5.18;;;3.70;;
25615;SDS011;13482;48.234;13.006;2022-11-14T02:57:35;5.35;;;4.00;;
25615;SDS011;13482;48.234;13.006;2022-11-14T03:00:03;5.25;;;3.80;;
25615;SDS011;13482;48.234;13.006;2022-11-14T03:02:39;4.53;;;3.42;;
25615;SDS011;13482;48.234;13.006;2022-11-14T03:05:06;4.72;;;3.50;;
25615;SDS011;13482;48.234;13.006;2022-11-14T03:07:34;5.18;;;3.67;;
25615;SDS011;13482;48.234;13.006;2022-11-14T03:10:01;4.80;;;3.67;;
25615;SDS011;13482;48.234;13.006;2022-11-14T03:12:29;5.90;;;3.83;;
25615;SDS011;13482;48.234;13.006;2022-11-14T03:14:56;5.25;;;3.70;;
25615;SDS011;13482;48.234;13.006;2022-11-14T03:17:23;4.32;;;3.30;;
25615;SDS011;13482;48.234;13.006;2022-11-14T03:19:50;4.95;;;3.35;;
25615;SDS011;13482;48.234;13.006;2022-11-14T03:22:17;4.82;;;3.40;;
25615;SDS011;13482;48.234;13.006;2022-11-14T03:24:45;5.32;;;3.70;;
25615;SDS011;13482;48.234;13.006;2022-11-14T03:27:12;4.63;;;3.42;;
25615;SDS011;13482;48.234;13.006;2022-11-14T03:29:39;4.78;;;3.25;;
25615;SDS011;13482;48.234;13.006;2022-11-14T03:32:06;4.85;;;3.38;;
25615;SDS011;13482;48.234;13.006;2022-11-14T03:34:33;5.55;;;3.83;;
25615;SDS011;13482;48.234;13.006;2022-11-14T03:37:00;4.93;;;3.42;;
25615;SDS011;13482;48.234;13.006;2022-11-14T03:39:28;4.60;;;3.60;;
25615;SDS011;13482;48.234;13.006;2022-11-14T03:41:55;5.20;;;3.65;;
25615;SDS011;13482;48.234;13.006;2022-11-14T03:44:22;5.07;;;4.03;;
25615;SDS011;13482;48.234;13.006;2022-11-14T03:46:50;5.22;;;3.53;;
25615;SDS011;13482;48.234;13.006;2022-11-14T03:49:17;5.03;;;3.80;;
25615;SDS011;13482;48.234;13.006;2022-11-14T03:51:45;5.25;;;3.92;;
25615;SDS011;13482;48.234;13.006;2022-11-14T03:54:12;5.72;;;4.25;;
25615;SDS011;13482;48.234;13.006;2022-11-14T03:56:39;5.03;;;3.70;;
25615;SDS011;13482;48.234;13.006;2022-11-14T03:59:06;6.05;;;4.13;;
25615;SDS011;13482;48.234;13.006;2022-11-14T04:01:34;5.43;;;4.13;;
25615;SDS011;13482;48.234;13.006;2022-11-14T04:04:01;5.25;;;3.85;;
25615;SDS011;13482;48.234;13.006;2022-11-14T04:06:28;6.55;;;4.57;;
25615;SDS011;13482;48.234;13.006;2022-11-14T04:08:55;5.07;;;3.83;;
25615;SDS011;13482;48.234;13.006;2022-11-14T04:11:22;5.57;;;4.15;;
25615;SDS011;13482;48.234;13.006;2022-11-14T04:13:49;7.10;;;4.30;;
25615;SDS011;13482;48.234;13.006;2022-11-14T04:16:17;5.70;;;3.88;;
25615;SDS011;13482;48.234;13.006;2022-11-14T04:18:44;5.60;;;4.28;;
25615;SDS011;13482;48.234;13.006;2022-11-14T04:21:11;5.90;;;4.38;;
25615;SDS011;13482;48.234;13.006;2022-11-14T04:23:38;6.22;;;4.40;;
25615;SDS011;13482;48.234;13.006;2022-11-14T04:26:05;5.63;;;4.00;;
25615;SDS011;13482;48.234;13.006;2022-11-14T04:28:33;5.43;;;4.00;;
25615;SDS011;13482;48.234;13.006;2022-11-14T04:31:00;5.53;;;3.78;;
25615;SDS011;13482;48.234;13.006;2022-11-14T04:33:27;5.75;;;4.10;;
25615;SDS011;13482;48.234;13.006;2022-11-14T04:35:54;6.22;;;4.40;;
25615;SDS011;13482;48.234;13.006;2022-11-14T04:38:21;5.53;;;4.22;;
25615;SDS011;13482;48.234;13.006;2022-11-14T04:40:49;5.47;;;4.05;;
25615;SDS011;13482;48.234;13.006;2022-11-14T04:43:19;4.97;;;3.55;;
25615;SDS011;13482;48.234;13.006;2022-11-14T04:45:47;5.80;;;4.22;;
25615;SDS011;13482;48.234;13.006;2022-11-14T04:48:14;5.65;;;4.20;;
25615;SDS011;13482;48.234;13.006;2022-11-14T04:50:41;5.88;;;3.92;;
25615;SDS011;13482;48.234;13.006;2022-11-14T04:53:10;6.70;;;3.85;;
25615;SDS011;13482;48.234;13.006;2022-11-14T04:55:38;4.82;;;3.45;;
25615;SDS011;13482;48.234;13.006;2022-11-14T04:58:05;5.07;;;3.78;;
25615;SDS011;13482;48.234;13.006;2022-11-14T05:00:32;4.93;;;3.55;;
25615;SDS011;13482;48.234;13.006;2022-11-14T05:02:59;4.97;;;3.78;;
25615;SDS011;13482;48.234;13.006;2022-11-14T05:05:26;5.03;;;3.60;;
25615;SDS011;13482;48.234;13.006;2022-11-14T05:07:53;4.57;;;3.50;;
25615;SDS011;13482;48.234;13.006;2022-11-14T05:10:21;5.13;;;3.80;;
25615;SDS011;13482;48.234;13.006;2022-11-14T05:12:48;5.43;;;4.07;;
25615;SDS011;13482;48.234;13.006;2022-11-14T05:15:19;5.35;;;4.00;;
25615;SDS011;13482;48.234;13.006;2022-11-14T05:17:47;5.28;;;3.92;;
25615;SDS011;13482;48.234;13.006;2022-11-14T05:20:14;5.40;;;3.90;;
25615;SDS011;13482;48.234;13.006;2022-11-14T05:22:42;5.80;;;3.50;;
25615;SDS011;13482;48.234;13.006;2022-11-14T05:25:09;4.95;;;3.70;;
25615;SDS011;13482;48.234;13.006;2022-11-14T05:27:36;4.55;;;3.65;;
25615;SDS011;13482;48.234;13.006;2022-11-14T05:30:04;5.68;;;3.97;;
25615;SDS011;13482;48.234;13.006;2022-11-14T05:32:31;5.97;;;4.05;;
25615;SDS011;13482;48.234;13.006;2022-11-14T05:34:59;5.88;;;4.30;;
25615;SDS011;13482;48.234;13.006;2022-11-14T05:37:26;5.38;;;3.97;;
25615;SDS011;13482;48.234;13.006;2022-11-14T05:39:53;6.00;;;3.90;;
25615;SDS011;13482;48.234;13.006;2022-11-14T05:42:20;5.32;;;3.72;;
25615;SDS011;13482;48.234;13.006;2022-11-14T05:44:47;5.80;;;4.00;;
25615;SDS011;13482;48.234;13.006;2022-11-14T05:47:14;5.82;;;4.28;;
25615;SDS011;13482;48.234;13.006;2022-11-14T05:49:42;5.53;;;3.65;;
25615;SDS011;13482;48.234;13.006;2022-11-14T05:52:09;5.47;;;4.13;;
25615;SDS011;13482;48.234;13.006;2022-11-14T05:54:37;4.07;;;3.17;;
25615;SDS011;13482;48.234;13.006;2022-11-14T05:57:04;5.35;;;3.92;;
25615;SDS011;13482;48.234;13.006;2022-11-14T05:59:31;5.05;;;3.78;;
25615;SDS011;13482;48.234;13.006;2022-11-14T06:01:58;4.78;;;3.42;;
25615;SDS011;13482;48.234;13.006;2022-11-14T06:04:25;4.85;;;3.58;;
25615;SDS011;13482;48.234;13.006;2022-11-14T06:06:52;5.22;;;3.83;;
25615;SDS011;13482;48.234;13.006;2022-11-14T06:09:20;5.03;;;3.53;;
25615;SDS011;13482;48.234;13.006;2022-11-14T06:11:47;5.30;;;3.78;;
25615;SDS011;13482;48.234;13.006;2022-11-14T06:14:14;4.60;;;3.35;;
25615;SDS011;13482;48.234;13.006;2022-11-14T06:16:41;4.88;;;3.72;;
25615;SDS011;13482;48.234;13.006;2022-11-14T06:19:08;4.75;;;3.60;;
25615;SDS011;13482;48.234;13.006;2022-11-14T06:21:35;6.18;;;3.72;;
25615;SDS011;13482;48.234;13.006;2022-11-14T06:24:02;5.15;;;3.70;;
25615;SDS011;13482;48.234;13.006;2022-11-14T06:26:30;4.78;;;3.30;;
25615;SDS011;13482;48.234;13.006;2022-11-14T06:28:58;4.38;;;3.60;;
25615;SDS011;13482;48.234;13.006;2022-11-14T06:31:25;4.88;;;3.35;;
25615;SDS011;13482;48.234;13.006;2022-11-14T06:33:53;5.00;;;3.42;;
25615;SDS011;13482;48.234;13.006;2022-11-14T06:36:21;5.03;;;3.63;;
25615;SDS011;13482;48.234;13.006;2022-11-14T06:38:49;6.32;;;4.18;;
25615;SDS011;13482;48.234;13.006;2022-11-14T06:41:17;4.88;;;3.63;;
25615;SDS011;13482;48.234;13.006;2022-11-14T06:43:51;5.30;;;3.95;;
25615;SDS011;13482;48.234;13.006;2022-11-14T06:46:20;5.60;;;3.95;;
25615;SDS011;13482;48.234;13.006;2022-11-14T06:48:48;4.85;;;3.45;;
25615;SDS011;13482;48.234;13.006;2022-11-14T06:51:17;6.30;;;4.40;;
25615;SDS011;13482;48.234;13.006;2022-11-14T06:53:44;5.75;;;4.28;;
25615;SDS011;13482;48.234;13.006;2022-11-14T06:56:13;5.47;;;3.78;;
25615;SDS011;13482;48.234;13.006;2022-11-14T06:58:43;5.20;;;3.65;;
25615;SDS011;13482;48.234;13.006;2022-11-14T07:01:14;5.68;;;3.78;;
25615;SDS011;13482;48.234;13.006;2022-11-14T07:03:51;5.68;;;4.03;;
25615;SDS011;13482;48.234;13.006;2022-11-14T07:06:19;5.82;;;4.20;;
25615;SDS011;13482;48.234;13.006;2022-11-14T07:08:50;5.90;;;4.05;;
25615;SDS011;13482;48.234;13.006;2022-11-14T07:11:20;5.82;;;3.83;;
25615;SDS011;13482;48.234;13.006;2022-11-14T07:13:51;5.18;;;3.83;;
25615;SDS011;13482;48.234;13.006;2022-11-14T07:16:27;5.50;;;3.72;;
25615;SDS011;13482;48.234;13.006;2022-11-14T07:19:03;5.60;;;3.90;;
25615;SDS011;13482;48.234;13.006;2022-11-14T07:23:59;4.32;;;2.95;;
25615;SDS011;13482;48.234;13.006;2022-11-14T07:26:27;4.57;;;3.28;;
25615;SDS011;13482;48.234;13.006;2022-11-14T07:28:54;4.57;;;3.47;;
25615;SDS011;13482;48.234;13.006;2022-11-14T07:31:27;4.90;;;3.47;;
25615;SDS011;13482;48.234;13.006;2022-11-14T07:33:55;5.13;;;3.92;;
25615;SDS011;13482;48.234;13.006;2022-11-14T07:36:22;5.70;;;4.10;;
25615;SDS011;13482;48.234;13.006;2022-11-14T07:38:50;4.85;;;3.83;;
25615;SDS011;13482;48.234;13.006;2022-11-14T07:41:17;5.18;;;3.92;;
25615;SDS011;13482;48.234;13.006;2022-11-14T07:43:44;5.55;;;3.95;;
25615;SDS011;13482;48.234;13.006;2022-11-14T07:46:13;5.22;;;3.80;;
25615;SDS011;13482;48.234;13.006;2022-11-14T07:48:42;7.07;;;4.45;;
25615;SDS011;13482;48.234;13.006;2022-11-14T07:51:14;5.53;;;3.78;;
25615;SDS011;13482;48.234;13.006;2022-11-14T07:53:44;6.55;;;4.28;;
25615;SDS011;13482;48.234;13.006;2022-11-14T07:56:12;6.15;;;4.25;;
25615;SDS011;13482;48.234;13.006;2022-11-14T07:58:40;6.10;;;4.10;;
25615;SDS011;13482;48.234;13.006;2022-11-14T08:01:09;6.07;;;4.38;;
25615;SDS011;13482;48.234;13.006;2022-11-14T08:03:38;6.30;;;4.32;;
25615;SDS011;13482;48.234;13.006;2022-11-14T08:06:12;6.18;;;4.45;;
25615;SDS011;13482;48.234;13.006;2022-11-14T08:08:41;6.60;;;4.60;;
25615;SDS011;13482;48.234;13.006;2022-11-14T08:11:08;6.78;;;4.72;;
25615;SDS011;13482;48.234;13.006;2022-11-14T08:13:36;6.65;;;4.93;;
25615;SDS011;13482;48.234;13.006;2022-11-14T08:16:04;6.22;;;4.55;;
25615;SDS011;13482;48.234;13.006;2022-11-14T08:18:39;6.28;;;4.90;;
25615;SDS011;13482;48.234;13.006;2022-11-14T08:21:06;7.10;;;4.63;;
25615;SDS011;13482;48.234;13.006;2022-11-14T08:23:33;6.22;;;4.40;;
25615;SDS011;13482;48.234;13.006;2022-11-14T08:26:00;6.18;;;4.60;;
25615;SDS011;13482;48.234;13.006;2022-11-14T08:28:28;6.65;;;4.90;;
25615;SDS011;13482;48.234;13.006;2022-11-14T08:31:00;6.95;;;5.15;;
25615;SDS011;13482;48.234;13.006;2022-11-14T08:33:28;7.70;;;5.75;;
25615;SDS011;13482;48.234;13.006;2022-11-14T08:36:03;7.10;;;5.40;;
25615;SDS011;13482;48.234;13.006;2022-11-14T08:38:33;6.57;;;4.88;;
25615;SDS011;13482;48.234;13.006;2022-11-14T08:41:00;6.93;;;5.03;;
25615;SDS011;13482;48.234;13.006;2022-11-14T08:43:29;7.25;;;5.30;;
25615;SDS011;13482;48.234;13.006;2022-11-14T08:45:58;6.50;;;5.20;;
25615;SDS011;13482;48.234;13.006;2022-11-14T08:48:27;7.25;;;5.57;;
25615;SDS011;13482;48.234;13.006;2022-11-14T08:51:00;7.05;;;5.40;;
25615;SDS011;13482;48.234;13.006;2022-11-14T08:53:32;6.13;;;4.60;;
25615;SDS011;13482;48.234;13.006;2022-11-14T08:56:00;6.35;;;4.80;;
25615;SDS011;13482;48.234;13.006;2022-11-14T08:58:28;6.15;;;4.78;;
25615;SDS011;13482;48.234;13.006;2022-11-14T09:01:01;7.53;;;5.50;;
25615;SDS011;13482;48.234;13.006;2022-11-14T09:03:30;6.65;;;5.22;;
25615;SDS011;13482;48.234;13.006;2022-11-14T09:05:59;6.95;;;4.53;;
25615;SDS011;13482;48.234;13.006;2022-11-14T09:08:27;6.90;;;4.97;;
25615;SDS011;13482;48.234;13.006;2022-11-14T09:11:05;5.88;;;5.10;;
25615;SDS011;13482;48.234;13.006;2022-11-14T09:13:35;6.53;;;5.10;;
25615;SDS011;13482;48.234;13.006;2022-11-14T09:16:02;6.07;;;4.90;;
25615;SDS011;13482;48.234;13.006;2022-11-14T09:18:29;6.03;;;4.90;;
25615;SDS011;13482;48.234;13.006;2022-11-14T09:21:04;5.65;;;4.68;;
25615;SDS011;13482;48.234;13.006;2022-11-14T09:23:33;5.90;;;5.03;;
25615;SDS011;13482;48.234;13.006;2022-11-14T09:26:02;5.85;;;4.72;;
25615;SDS011;13482;48.234;13.006;2022-11-14T09:28:34;6.00;;;4.78;;
25615;SDS011;13482;48.234;13.006;2022-11-14T09:31:02;5.97;;;4.68;;
25615;SDS011;13482;48.234;13.006;2022-11-14T09:33:33;6.55;;;5.03;;
25615;SDS011;13482;48.234;13.006;2022-11-14T09:36:02;6.60;;;4.90;;
25615;SDS011;13482;48.234;13.006;2022-11-14T09:38:32;5.45;;;4.30;;
25615;SDS011;13482;48.234;13.006;2022-11-14T09:46:33;5.72;;;4.40;;
25615;SDS011;13482;48.234;13.006;2022-11-14T09:49:26;6.32;;;4.35;;
25615;SDS011;13482;48.234;13.006;2022-11-14T09:52:14;6.32;;;5.05;;
25615;SDS011;13482;48.234;13.006;2022-11-14T09:57:43;5.90;;;4.15;;
25615;SDS011;13482;48.234;13.006;2022-11-14T10:00:12;6.68;;;4.72;;
25615;SDS011;13482;48.234;13.006;2022-11-14T10:12:20;5.15;;;3.97;;
25615;SDS011;13482;48.234;13.006;2022-11-14T10:15:17;11.07;;;4.75;;
25615;SDS011;13482;48.234;13.006;2022-11-14T10:18:04;5.57;;;4.20;;
25615;SDS011;13482;48.234;13.006;2022-11-14T10:24:56;5.05;;;3.90;;
25615;SDS011;13482;48.234;13.006;2022-11-14T10:27:45;6.28;;;4.28;;
25615;SDS011;13482;48.234;13.006;2022-11-14T10:30:43;5.03;;;3.83;;
25615;SDS011;13482;48.234;13.006;2022-11-14T10:33:46;5.20;;;3.67;;
25615;SDS011;13482;48.234;13.006;2022-11-14T10:42:51;5.10;;;3.88;;
25615;SDS011;13482;48.234;13.006;2022-11-14T10:45:30;4.53;;;3.42;;
25615;SDS011;13482;48.234;13.006;2022-11-14T10:50:50;5.63;;;3.45;;
25615;SDS011;13482;48.234;13.006;2022-11-14T10:53:27;5.65;;;3.95;;
25615;SDS011;13482;48.234;13.006;2022-11-14T10:56:11;4.90;;;3.55;;
25615;SDS011;13482;48.234;13.006;2022-11-14T10:58:40;4.20;;;3.60;;
25615;SDS011;13482;48.234;13.006;2022-11-14T11:04:20;4.47;;;3.50;;
25615;SDS011;13482;48.234;13.006;2022-11-14T11:06:51;4.15;;;3.47;;
25615;SDS011;13482;48.234;13.006;2022-11-14T11:09:24;4.25;;;3.55;;
25615;SDS011;13482;48.234;13.006;2022-11-14T11:12:16;3.90;;;3.33;;
25615;SDS011;13482;48.234;13.006;2022-11-14T11:25:35;4.07;;;3.13;;
25615;SDS011;13482;48.234;13.006;2022-11-14T11:28:05;3.95;;;3.10;;
25615;SDS011;13482;48.234;13.006;2022-11-14T11:30:37;3.47;;;2.83;;
25615;SDS011;13482;48.234;13.006;2022-11-14T11:33:15;4.10;;;2.97;;
25615;SDS011;13482;48.234;13.006;2022-11-14T11:35:50;3.65;;;2.95;;
25615;SDS011;13482;48.234;13.006;2022-11-14T11:38:24;4.05;;;2.72;;
25615;SDS011;13482;48.234;13.006;2022-11-14T11:40:57;4.05;;;3.30;;
25615;SDS011;13482;48.234;13.006;2022-11-14T11:43:55;4.05;;;3.05;;
25615;SDS011;13482;48.234;13.006;2022-11-14T11:50:02;3.67;;;2.83;;
25615;SDS011;13482;48.234;13.006;2022-11-14T11:55:04;4.25;;;2.30;;
25615;SDS011;13482;48.234;13.006;2022-11-14T11:58:04;3.25;;;2.22;;
25615;SDS011;13482;48.234;13.006;2022-11-14T12:00:40;3.30;;;2.63;;
25615;SDS011;13482;48.234;13.006;2022-11-14T12:03:11;3.45;;;2.65;;
25615;SDS011;13482;48.234;13.006;2022-11-14T12:05:54;3.80;;;2.80;;
25615;SDS011;13482;48.234;13.006;2022-11-14T12:11:38;3.35;;;2.78;;
25615;SDS011;13482;48.234;13.006;2022-11-14T12:20:36;3.53;;;2.75;;
25615;SDS011;13482;48.234;13.006;2022-11-14T12:24:01;3.92;;;2.85;;
25615;SDS011;13482;48.234;13.006;2022-11-14T12:31:58;3.40;;;2.65;;
25615;SDS011;13482;48.234;13.006;2022-11-14T12:34:33;3.75;;;2.97;;
25615;SDS011;13482;48.234;13.006;2022-11-14T12:37:21;3.92;;;2.95;;
25615;SDS011;13482;48.234;13.006;2022-11-14T12:40:04;4.43;;;3.00;;
25615;SDS011;13482;48.234;13.006;2022-11-14T12:42:39;3.88;;;2.90;;
25615;SDS011;13482;48.234;13.006;2022-11-14T12:48:13;4.28;;;3.10;;
25615;SDS011;13482;48.234;13.006;2022-11-14T12:50:47;3.78;;;2.92;;
25615;SDS011;13482;48.234;13.006;2022-11-14T12:56:41;3.95;;;3.17;;
25615;SDS011;13482;48.234;13.006;2022-11-14T13:10:34;3.58;;;2.75;;
25615;SDS011;13482;48.234;13.006;2022-11-14T13:13:08;4.40;;;3.47;;
25615;SDS011;13482;48.234;13.006;2022-11-14T13:16:00;4.28;;;3.20;;
25615;SDS011;13482;48.234;13.006;2022-11-14T13:19:33;4.38;;;3.25;;
25615;SDS011;13482;48.234;13.006;2022-11-14T13:22:16;4.40;;;3.38;;
25615;SDS011;13482;48.234;13.006;2022-11-14T13:27:27;4.55;;;3.50;;
25615;SDS011;13482;48.234;13.006;2022-11-14T13:30:17;4.63;;;3.30;;
25615;SDS011;13482;48.234;13.006;2022-11-14T13:35:28;3.88;;;3.38;;
25615;SDS011;13482;48.234;13.006;2022-11-14T13:38:15;4.85;;;3.30;;
25615;SDS011;13482;48.234;13.006;2022-11-14T13:50:27;4.00;;;3.30;;
25615;SDS011;13482;48.234;13.006;2022-11-14T13:52:58;4.63;;;3.42;;
25615;SDS011;13482;48.234;13.006;2022-11-14T14:08:07;4.15;;;3.55;;
25615;SDS011;13482;48.234;13.006;2022-11-14T14:14:15;3.65;;;2.97;;
25615;SDS011;13482;48.234;13.006;2022-11-14T14:16:59;4.35;;;3.35;;
25615;SDS011;13482;48.234;13.006;2022-11-14T14:31:52;4.13;;;3.28;;
25615;SDS011;13482;48.234;13.006;2022-11-14T14:34:22;3.83;;;3.05;;
25615;SDS011;13482;48.234;13.006;2022-11-14T14:36:55;4.20;;;3.10;;
25615;SDS011;13482;48.234;13.006;2022-11-14T14:39:24;3.90;;;2.92;;
25615;SDS011;13482;48.234;13.006;2022-11-14T14:41:54;4.78;;;3.25;;
25615;SDS011;13482;48.234;13.006;2022-11-14T14:46:52;4.28;;;3.13;;
25615;SDS011;13482;48.234;13.006;2022-11-14T14:49:23;4.15;;;3.22;;
25615;SDS011;13482;48.234;13.006;2022-11-14T14:51:55;5.88;;;3.58;;
25615;SDS011;13482;48.234;13.006;2022-11-14T14:54:25;4.40;;;3.65;;
25615;SDS011;13482;48.234;13.006;2022-11-14T14:56:55;4.63;;;3.90;;
25615;SDS011;13482;48.234;13.006;2022-11-14T14:59:27;5.00;;;3.67;;
25615;SDS011;13482;48.234;13.006;2022-11-14T15:01:56;4.47;;;3.30;;
25615;SDS011;13482;48.234;13.006;2022-11-14T15:04:25;6.30;;;4.38;;
25615;SDS011;13482;48.234;13.006;2022-11-14T15:06:54;4.88;;;3.33;;
25615;SDS011;13482;48.234;13.006;2022-11-14T15:09:26;4.50;;;3.45;;
25615;SDS011;13482;48.234;13.006;2022-11-14T15:11:58;5.38;;;4.00;;
25615;SDS011;13482;48.234;13.006;2022-11-14T15:14:27;9.55;;;4.47;;
25615;SDS011;13482;48.234;13.006;2022-11-14T15:17:01;6.82;;;4.32;;
25615;SDS011;13482;48.234;13.006;2022-11-14T15:19:36;5.80;;;4.18;;
25615;SDS011;13482;48.234;13.006;2022-11-14T15:24:43;6.55;;;4.18;;
25615;SDS011;13482;48.234;13.006;2022-11-14T15:27:11;5.05;;;3.72;;
25615;SDS011;13482;48.234;13.006;2022-11-14T15:29:49;4.65;;;3.88;;
25615;SDS011;13482;48.234;13.006;2022-11-14T15:32:22;4.50;;;3.65;;
25615;SDS011;13482;48.234;13.006;2022-11-14T15:35:22;6.72;;;4.05;;
25615;SDS011;13482;48.234;13.006;2022-11-14T15:43:50;5.28;;;4.22;;
25615;SDS011;13482;48.234;13.006;2022-11-14T15:49:06;5.00;;;4.13;;
25615;SDS011;13482;48.234;13.006;2022-11-14T15:51:47;16.25;;;14.70;;
25615;SDS011;13482;48.234;13.006;2022-11-14T15:56:49;12.10;;;11.00;;
25615;SDS011;13482;48.234;13.006;2022-11-14T15:59:18;7.63;;;6.82;;
25615;SDS011;13482;48.234;13.006;2022-11-14T16:01:46;7.22;;;6.28;;
25615;SDS011;13482;48.234;13.006;2022-11-14T16:04:19;6.50;;;5.20;;
25615;SDS011;13482;48.234;13.006;2022-11-14T16:06:50;5.97;;;4.93;;
25615;SDS011;13482;48.234;13.006;2022-11-14T16:09:18;5.78;;;4.38;;
25615;SDS011;13482;48.234;13.006;2022-11-14T16:11:46;4.65;;;3.80;;
25615;SDS011;13482;48.234;13.006;2022-11-14T16:14:14;5.40;;;3.30;;
25615;SDS011;13482;48.234;13.006;2022-11-14T16:16:41;5.80;;;3.80;;
25615;SDS011;13482;48.234;13.006;2022-11-14T16:19:09;5.35;;;3.63;;
25615;SDS011;13482;48.234;13.006;2022-11-14T16:24:15;5.57;;;4.28;;
25615;SDS011;13482;48.234;13.006;2022-11-14T16:26:48;4.93;;;3.72;;
25615;SDS011;13482;48.234;13.006;2022-11-14T16:29:15;4.97;;;3.85;;
25615;SDS011;13482;48.234;13.006;2022-11-14T16:31:42;5.18;;;3.80;;
25615;SDS011;13482;48.234;13.006;2022-11-14T16:34:14;4.35;;;3.55;;
25615;SDS011;13482;48.234;13.006;2022-11-14T16:36:45;5.00;;;3.70;;
25615;SDS011;13482;48.234;13.006;2022-11-14T16:39:14;5.03;;;3.28;;
25615;SDS011;13482;48.234;13.006;2022-11-14T16:41:41;4.50;;;3.50;;
25615;SDS011;13482;48.234;13.006;2022-11-14T16:44:12;4.72;;;3.65;;
25615;SDS011;13482;48.234;13.006;2022-11-14T16:46:42;4.90;;;3.40;;
25615;SDS011;13482;48.234;13.006;2022-11-14T16:49:14;4.20;;;3.20;;
25615;SDS011;13482;48.234;13.006;2022-11-14T16:51:43;4.07;;;3.03;;
25615;SDS011;13482;48.234;13.006;2022-11-14T16:54:16;3.97;;;2.75;;
25615;SDS011;13482;48.234;13.006;2022-11-14T16:56:44;4.00;;;2.90;;
25615;SDS011;13482;48.234;13.006;2022-11-14T16:59:12;4.40;;;3.05;;
25615;SDS011;13482;48.234;13.006;2022-11-14T17:01:39;3.60;;;2.55;;
25615;SDS011;13482;48.234;13.006;2022-11-14T17:04:07;3.80;;;2.70;;
25615;SDS011;13482;48.234;13.006;2022-11-14T17:06:34;4.90;;;3.28;;
25615;SDS011;13482;48.234;13.006;2022-11-14T17:09:02;4.55;;;3.80;;
25615;SDS011;13482;48.234;13.006;2022-11-14T17:11:29;6.43;;;4.40;;
25615;SDS011;13482;48.234;13.006;2022-11-14T17:13:56;6.05;;;4.47;;
25615;SDS011;13482;48.234;13.006;2022-11-14T17:16:23;7.82;;;5.93;;
25615;SDS011;13482;48.234;13.006;2022-11-14T17:18:51;7.90;;;5.93;;
25615;SDS011;13482;48.234;13.006;2022-11-14T17:21:20;8.98;;;6.47;;
25615;SDS011;13482;48.234;13.006;2022-11-14T17:23:53;8.18;;;6.32;;
25615;SDS011;13482;48.234;13.006;2022-11-14T17:26:28;7.95;;;6.03;;
25615;SDS011;13482;48.234;13.006;2022-11-14T17:28:55;7.53;;;5.40;;
25615;SDS011;13482;48.234;13.006;2022-11-14T17:31:23;6.40;;;4.75;;